createdAt,value
2023-02-03T00:00:05.232Z,567.00
2023-02-03T00:01:05.270Z,562.00
2023-02-03T00:02:05.365Z,567.00
2023-02-03T00:03:05.385Z,557.00
2023-02-03T00:04:05.424Z,559.00
2023-02-03T00:05:05.465Z,567.00
2023-02-03T00:06:05.525Z,560.00
2023-02-03T00:07:05.577Z,559.00
2023-02-03T00:08:05.632Z,559.00
2023-02-03T00:09:05.672Z,564.00
2023-02-03T00:10:05.738Z,557.00
2023-02-03T00:11:05.785Z,559.00
2023-02-03T00:12:05.835Z,561.00
2023-02-03T00:13:05.880Z,560.00
2023-02-03T00:14:05.939Z,554.00
2023-02-03T00:15:05.999Z,557.00
2023-02-03T00:16:06.107Z,561.00
2023-02-03T00:17:06.105Z,552.00
2023-02-03T00:18:06.154Z,561.00
2023-02-03T00:19:06.204Z,560.00
2023-02-03T00:20:06.279Z,562.00
2023-02-03T00:21:06.313Z,560.00
2023-02-03T00:22:06.376Z,554.00
2023-02-03T00:23:06.435Z,557.00
2023-02-03T00:24:06.485Z,557.00
2023-02-03T00:25:06.540Z,558.00
2023-02-03T00:26:06.610Z,560.00
2023-02-03T00:27:06.671Z,556.00
2023-02-03T00:28:06.751Z,557.00
2023-02-03T00:29:06.762Z,554.00
2023-02-03T00:30:06.814Z,557.00
2023-02-03T00:31:06.967Z,559.00
2023-02-03T00:32:07.048Z,560.00
2023-02-03T00:33:06.993Z,562.00
2023-02-03T00:34:07.046Z,559.00
2023-02-03T00:35:07.110Z,559.00
2023-02-03T00:36:07.175Z,553.00
2023-02-03T00:37:07.226Z,558.00
2023-02-03T00:38:07.277Z,555.00
2023-02-03T00:39:07.330Z,557.00
2023-02-03T00:40:07.396Z,556.00
2023-02-03T00:41:07.453Z,554.00
2023-02-03T00:42:07.505Z,558.00
2023-02-03T00:43:07.561Z,549.00
2023-02-03T00:44:07.627Z,553.00
2023-02-03T00:45:07.665Z,559.00
2023-02-03T00:46:07.740Z,560.00
2023-02-03T00:47:07.750Z,557.00
2023-02-03T00:48:07.793Z,562.00
2023-02-03T00:49:07.854Z,561.00
2023-02-03T00:50:07.880Z,555.00
2023-02-03T00:51:07.936Z,553.00
2023-02-03T00:52:07.979Z,551.00
2023-02-03T00:53:08.030Z,554.00
2023-02-03T01:25:09.694Z,556.00
2023-02-03T01:26:09.735Z,549.00
2023-02-03T01:27:09.790Z,545.00
2023-02-03T01:28:09.902Z,550.00
2023-02-03T01:29:09.904Z,550.00
2023-02-03T01:30:09.955Z,543.00
2023-02-03T01:31:10.135Z,547.00
2023-02-03T01:32:10.074Z,554.00
2023-02-03T01:33:10.120Z,552.00
2023-02-03T01:34:10.168Z,545.00
2023-02-03T01:35:10.213Z,550.00
2023-02-03T01:36:10.265Z,548.00
2023-02-03T02:37:13.381Z,535.00
2023-02-03T02:38:13.456Z,542.00
2023-02-03T02:39:13.502Z,541.00
2023-02-03T02:40:13.558Z,539.00
2023-02-03T02:41:13.607Z,536.00
2023-02-03T02:42:13.655Z,539.00
2023-02-03T02:43:13.692Z,538.00
2023-02-03T02:44:13.738Z,544.00
2023-02-03T02:45:13.787Z,532.00
2023-02-03T02:46:13.845Z,542.00
2023-02-03T02:47:13.867Z,538.00
2023-02-03T02:48:13.924Z,537.00
2023-02-03T02:49:13.975Z,541.00
2023-02-03T02:50:14.021Z,539.00
2023-02-03T02:51:14.046Z,534.00
2023-02-03T02:53:14.162Z,534.00
2023-02-03T02:54:14.217Z,542.00
2023-02-03T02:55:14.283Z,536.00
2023-02-03T02:56:15.654Z,537.00
2023-02-03T06:17:23.377Z,508.00
2023-02-03T06:18:23.403Z,511.00
2023-02-03T06:19:23.436Z,507.00
2023-02-03T06:20:23.473Z,502.00
2023-02-03T06:21:23.506Z,506.00
2023-02-03T06:22:23.557Z,505.00
2023-02-03T06:23:23.585Z,502.00
2023-02-03T06:24:23.616Z,500.00
2023-02-03T06:25:23.658Z,500.00
2023-02-03T06:26:23.702Z,504.00
2023-02-03T06:27:23.732Z,510.00
2023-02-03T06:28:23.774Z,507.00
2023-02-03T06:29:23.809Z,505.00
2023-02-03T06:30:23.912Z,510.00
2023-02-03T06:31:23.992Z,509.00
2023-02-03T06:32:23.919Z,508.00
2023-02-03T06:33:23.952Z,510.00
2023-02-03T06:34:23.984Z,507.00
2023-02-03T06:35:24.023Z,515.00
2023-02-03T06:36:24.049Z,515.00
2023-02-03T06:37:24.951Z,522.00
2023-02-03T06:38:24.116Z,529.00
2023-02-03T06:39:24.107Z,543.00
2023-02-03T06:40:24.111Z,543.00
2023-02-03T06:41:24.135Z,544.00
2023-02-03T06:42:24.148Z,554.00
2023-02-03T06:43:24.165Z,561.00
2023-02-03T06:44:24.158Z,566.00
2023-02-03T06:45:24.153Z,570.00
2023-02-03T06:46:24.173Z,583.00
2023-02-03T06:47:24.159Z,588.00
2023-02-03T06:48:24.150Z,599.00
2023-02-03T06:49:24.142Z,606.00
2023-02-03T06:50:24.139Z,613.00
2023-02-03T06:51:25.013Z,621.00
2023-02-03T06:52:24.184Z,628.00
2023-02-03T06:53:24.106Z,637.00
2023-02-03T06:54:24.088Z,652.00
2023-02-03T06:55:24.078Z,662.00
2023-02-03T06:56:24.096Z,666.00
2023-02-03T06:57:24.056Z,686.00
2023-02-03T06:58:24.053Z,663.00
2023-02-03T06:59:24.039Z,695.00
2023-02-03T07:00:24.042Z,696.00
2023-02-03T07:01:24.065Z,710.00
2023-02-03T07:02:24.083Z,698.00
2023-02-03T07:03:24.085Z,721.00
2023-02-03T07:04:24.072Z,686.00
2023-02-03T07:05:24.080Z,707.00
2023-02-03T07:06:24.097Z,666.00
2023-02-03T07:07:24.120Z,646.00
2023-02-03T07:08:24.139Z,631.00
2023-02-03T07:09:24.182Z,633.00
2023-02-03T07:10:24.182Z,656.00
2023-02-03T07:11:24.218Z,639.00
2023-02-03T07:12:24.229Z,643.00
2023-02-03T07:13:24.277Z,646.00
2023-02-03T07:14:24.281Z,640.00
2023-02-03T07:15:24.313Z,624.00
2023-02-03T07:16:24.347Z,634.00
2023-02-03T07:17:24.366Z,637.00
2023-02-03T07:18:45.778Z,611.00
2023-02-03T07:19:25.367Z,612.00
2023-02-03T07:20:24.375Z,616.00
2023-02-03T07:21:24.339Z,617.00
2023-02-03T07:22:24.313Z,608.00
2023-02-03T07:23:24.320Z,608.00
2023-02-03T07:24:24.270Z,594.00
2023-02-03T07:25:24.251Z,608.00
2023-02-03T07:26:24.245Z,590.00
2023-02-03T07:27:24.272Z,607.00
2023-02-03T07:28:24.204Z,606.00
2023-02-03T07:29:24.193Z,609.00
2023-02-03T07:30:25.153Z,607.00
2023-02-03T07:31:24.274Z,607.00
2023-02-03T07:32:24.184Z,614.00
2023-02-03T07:33:24.169Z,615.00
2023-02-03T07:34:24.130Z,612.00
2023-02-03T07:35:24.076Z,616.00
2023-02-03T07:36:24.054Z,620.00
2023-02-03T07:37:24.020Z,625.00
2023-02-03T07:38:24.018Z,627.00
2023-02-03T07:39:24.007Z,627.00
2023-02-03T07:40:24.003Z,628.00
2023-02-03T07:41:23.988Z,630.00
2023-02-03T07:42:24.969Z,631.00
2023-02-03T07:43:23.953Z,632.00
2023-02-03T07:44:23.957Z,633.00
2023-02-03T07:45:23.911Z,638.00
2023-02-03T07:46:23.917Z,643.00
2023-02-03T07:47:23.885Z,644.00
2023-02-03T07:48:23.852Z,649.00
2023-02-03T07:49:23.833Z,648.00
2023-02-03T07:50:23.825Z,652.00
2023-02-03T07:51:23.801Z,654.00
2023-02-03T07:52:23.774Z,653.00
2023-02-03T07:53:23.762Z,656.00
2023-02-03T07:54:23.801Z,657.00
2023-02-03T07:55:23.710Z,661.00
2023-02-03T07:56:23.676Z,660.00
2023-02-03T07:57:23.660Z,665.00
2023-02-03T07:58:23.647Z,673.00
2023-02-03T07:59:23.632Z,669.00
2023-02-03T08:00:23.614Z,664.00
2023-02-03T08:01:23.626Z,682.00
2023-02-03T08:02:23.575Z,681.00
2023-02-03T08:03:23.547Z,676.00
2023-02-03T08:04:23.544Z,684.00
2023-02-03T08:05:23.523Z,695.00
2023-02-03T08:06:23.497Z,700.00
2023-02-03T08:07:23.460Z,693.00
2023-02-03T08:08:23.438Z,710.00
2023-02-03T08:09:23.421Z,702.00
2023-02-03T08:10:23.381Z,712.00
2023-02-03T08:44:23.392Z,888.00
2023-02-03T08:45:23.444Z,888.00
2023-02-03T08:46:23.444Z,880.00
2023-02-03T08:47:23.495Z,883.00
2023-02-03T08:48:23.530Z,878.00
2023-02-03T08:49:23.583Z,884.00
2023-02-03T08:50:23.609Z,874.00
2023-02-03T08:51:23.665Z,880.00
2023-02-03T08:52:23.664Z,889.00
2023-02-03T08:53:23.695Z,895.00
2023-02-03T08:54:23.740Z,899.00
2023-02-03T08:55:23.770Z,900.00
2023-02-03T08:56:23.800Z,917.00
2023-02-03T08:57:23.830Z,922.00
2023-02-03T08:58:23.869Z,919.00
2023-02-03T08:59:23.903Z,921.00
2023-02-03T09:00:23.963Z,931.00
2023-02-03T09:01:24.056Z,929.00
2023-02-03T09:02:24.035Z,938.00
2023-02-03T09:03:24.094Z,944.00
2023-02-03T09:04:24.214Z,943.00
2023-02-03T09:05:24.194Z,958.00
2023-02-03T09:12:24.361Z,981.00
2023-02-03T09:22:24.294Z,999.00
2023-02-03T09:24:24.376Z,1020.00
2023-02-03T09:55:25.209Z,1182.00
2023-02-03T09:59:25.068Z,1234.00
2023-02-03T10:00:26.066Z,1234.00
2023-02-03T10:02:25.038Z,1256.00
2023-02-03T10:03:24.955Z,1256.00
2023-02-03T10:04:24.925Z,1259.00
2023-02-03T10:05:24.894Z,1284.00
2023-02-03T10:06:24.937Z,1300.00
2023-02-03T10:07:24.928Z,1289.00
2023-02-03T10:08:24.944Z,1300.00
2023-02-03T10:09:24.963Z,1296.00
2023-02-03T10:10:25.042Z,1319.00
2023-02-03T10:11:24.990Z,1315.00
2023-02-03T10:12:25.579Z,1318.00
2023-02-03T10:13:25.013Z,1325.00
2023-02-03T10:14:25.046Z,1325.00
2023-02-03T10:15:25.071Z,1343.00
2023-02-03T10:16:25.111Z,1345.00
2023-02-03T10:17:25.066Z,1368.00
2023-02-03T10:18:25.087Z,1328.00
2023-02-03T10:19:25.107Z,1356.00
2023-02-03T10:20:25.538Z,1328.00
2023-02-03T10:21:25.147Z,1327.00
2023-02-03T10:22:25.173Z,1320.00
2023-02-03T10:23:25.205Z,1308.00
2023-02-03T10:24:25.216Z,1293.00
2023-02-03T10:25:25.294Z,1301.00
2023-02-03T20:06:08.547Z,507.00
2023-02-03T20:13:08.108Z,506.00
2023-02-03T20:14:08.133Z,507.00
2023-02-03T20:15:08.181Z,505.00
2023-02-03T20:16:08.272Z,508.00
2023-02-03T20:17:08.310Z,506.00
2023-02-03T20:18:08.392Z,509.00
2023-02-03T20:19:08.466Z,507.00
2023-02-03T20:20:08.578Z,503.00
2023-02-03T20:21:08.663Z,509.00
2023-02-03T20:22:08.761Z,502.00
2023-02-03T20:23:08.810Z,506.00
2023-02-03T20:24:08.891Z,506.00
2023-02-03T20:25:08.981Z,501.00
2023-02-03T20:26:09.041Z,504.00
2023-02-03T20:27:09.144Z,506.00
2023-02-03T20:28:09.261Z,507.00
2023-02-03T20:29:09.269Z,504.00
2023-02-03T20:30:09.372Z,500.00
2023-02-03T20:31:09.542Z,503.00
2023-02-03T20:32:09.561Z,509.00
2023-02-03T20:33:09.542Z,507.00
2023-02-03T20:34:09.613Z,503.00
2023-02-03T20:35:09.667Z,503.00
2023-02-03T20:36:11.463Z,506.00
2023-02-03T20:37:09.844Z,505.00
2023-02-03T20:38:09.920Z,506.00
2023-02-03T20:39:10.006Z,507.00
2023-02-03T20:40:10.096Z,507.00
2023-02-03T20:41:10.166Z,507.00
2023-02-03T20:42:10.237Z,507.00
2023-02-03T20:43:10.324Z,500.00
2023-02-03T20:44:10.409Z,511.00
2023-02-03T20:45:10.493Z,508.00
2023-02-03T20:46:10.535Z,501.00
2023-02-03T20:47:10.592Z,504.00
2023-02-03T20:48:10.746Z,509.00
2023-02-03T20:49:10.768Z,506.00
2023-02-03T20:50:10.855Z,512.00
2023-02-03T20:51:10.929Z,503.00
2023-02-03T20:52:10.992Z,502.00
2023-02-03T20:53:11.086Z,505.00
2023-02-03T20:54:11.157Z,502.00
2023-02-03T20:55:11.248Z,507.00
2023-02-03T20:56:11.304Z,506.00
2023-02-03T20:57:11.352Z,501.00
2023-02-03T20:58:11.399Z,509.00
2023-02-03T20:59:11.443Z,513.00
2023-02-03T21:00:11.494Z,514.00
2023-02-03T21:01:11.579Z,508.00
2023-02-03T21:02:11.641Z,513.00
2023-02-03T21:03:11.629Z,508.00
2023-02-03T21:04:12.051Z,505.00
2023-02-03T21:05:11.781Z,504.00
2023-02-03T21:06:11.852Z,509.00
2023-02-03T21:07:11.934Z,510.00
2023-02-03T21:08:12.005Z,512.00
2023-02-03T21:09:12.084Z,510.00
2023-02-03T21:10:12.141Z,510.00
2023-02-03T21:11:12.224Z,514.00
2023-02-03T21:12:12.298Z,510.00
2023-02-03T21:13:12.403Z,508.00
2023-02-03T21:14:12.460Z,509.00
2023-02-03T21:15:12.541Z,509.00
2023-02-03T21:16:12.701Z,508.00
2023-02-03T21:17:12.696Z,509.00
2023-02-03T21:18:12.746Z,507.00
2023-02-03T21:19:12.821Z,511.00
2023-02-03T21:20:12.906Z,510.00
2023-02-03T21:21:12.951Z,514.00
2023-02-03T21:22:13.019Z,513.00
2023-02-03T21:23:13.108Z,508.00
2023-02-03T21:24:13.155Z,509.00
2023-02-03T21:25:13.234Z,517.00
2023-02-03T21:26:13.302Z,507.00
2023-02-03T21:27:13.354Z,513.00
2023-02-03T21:28:13.504Z,509.00
2023-02-03T21:29:13.545Z,508.00
2023-02-03T21:30:13.625Z,506.00
2023-02-03T21:31:13.767Z,509.00
2023-02-03T21:32:13.790Z,505.00
2023-02-03T21:33:13.866Z,506.00
2023-02-03T21:34:13.967Z,503.00
2023-02-03T21:35:14.058Z,514.00
2023-02-03T21:36:14.139Z,504.00
2023-02-03T21:37:14.226Z,506.00
2023-02-03T21:38:14.304Z,504.00
2023-02-03T21:39:14.396Z,506.00
2023-02-03T21:40:14.445Z,508.00
2023-02-03T21:41:14.500Z,500.00
2023-02-03T21:42:14.569Z,505.00
2023-02-03T21:43:14.592Z,508.00
2023-02-03T21:44:14.651Z,505.00
2023-02-03T21:45:14.742Z,504.00
2023-02-03T21:46:14.872Z,505.00
2023-02-03T21:47:14.939Z,509.00
2023-02-03T21:48:15.025Z,505.00
2023-02-03T21:49:15.105Z,514.00
2023-02-03T21:50:16.134Z,514.00
2023-02-03T21:51:15.156Z,514.00
2023-02-03T21:52:15.176Z,511.00
2023-02-03T21:53:15.203Z,505.00
2023-02-03T21:54:15.218Z,509.00
2023-02-03T21:55:15.240Z,512.00
2023-02-03T21:56:15.255Z,509.00
2023-02-03T21:57:15.265Z,509.00
2023-02-03T21:58:15.305Z,508.00
2023-02-03T21:59:15.317Z,505.00
2023-02-03T22:00:15.356Z,503.00
2023-02-03T22:01:15.382Z,507.00
2023-02-03T22:02:15.366Z,507.00
2023-02-03T22:03:15.417Z,507.00
2023-02-03T22:04:15.512Z,510.00
2023-02-03T22:05:15.582Z,502.00
2023-02-03T22:06:15.677Z,505.00
2023-02-03T22:07:15.758Z,508.00
2023-02-03T22:08:15.833Z,508.00
2023-02-03T22:09:15.922Z,501.00
2023-02-03T22:10:16.023Z,507.00
2023-02-03T22:11:16.116Z,503.00
2023-02-03T22:12:16.191Z,502.00
2023-02-03T22:13:16.207Z,510.00
2023-02-03T22:14:16.228Z,508.00
2023-02-03T22:15:16.263Z,506.00
2023-02-03T22:16:16.306Z,507.00
2023-02-03T22:17:16.297Z,508.00
2023-02-03T22:18:16.308Z,502.00
2023-02-03T22:19:16.344Z,506.00
2023-02-03T22:20:16.371Z,509.00
2023-02-03T22:21:16.414Z,510.00
2023-02-03T22:22:16.472Z,504.00
2023-02-03T22:23:16.510Z,507.00
2023-02-03T22:24:16.573Z,505.00
2023-02-03T22:25:16.617Z,508.00
2023-02-03T22:26:16.695Z,505.00
2023-02-03T22:27:16.752Z,506.00
2023-02-03T22:28:16.921Z,507.00
2023-02-03T22:29:16.907Z,505.00
2023-02-03T22:30:16.966Z,507.00
2023-02-03T22:31:17.135Z,506.00
2023-02-03T22:32:17.064Z,506.00
2023-02-03T22:33:17.117Z,505.00
2023-02-03T22:34:17.162Z,505.00
2023-02-03T22:35:17.206Z,504.00
2023-02-03T22:36:17.251Z,502.00
2023-02-03T22:37:17.300Z,508.00
2023-02-03T22:38:17.347Z,505.00
2023-02-03T22:39:17.432Z,508.00
2023-02-03T22:40:17.461Z,506.00
2023-02-03T22:41:17.493Z,503.00
2023-02-03T22:42:17.554Z,503.00
2023-02-03T22:43:17.583Z,505.00
2023-02-03T22:44:17.669Z,508.00
2023-02-03T22:45:17.665Z,504.00
2023-02-03T22:46:17.764Z,507.00
2023-02-03T22:47:17.778Z,503.00
2023-02-03T22:48:17.845Z,504.00
2023-02-03T22:49:17.907Z,507.00
2023-02-03T22:50:24.637Z,506.00
2023-02-03T22:51:18.986Z,507.00
2023-02-03T22:52:18.014Z,507.00
2023-02-03T22:53:18.031Z,507.00
2023-02-03T22:54:18.044Z,504.00
2023-02-03T22:55:18.078Z,503.00
2023-02-03T22:56:18.095Z,511.00
2023-02-03T22:57:18.121Z,508.00
2023-02-03T22:58:18.171Z,508.00
2023-02-03T22:59:18.169Z,508.00
2023-02-03T23:00:18.188Z,505.00
2023-02-03T23:01:18.206Z,501.00
2023-02-03T23:02:18.219Z,505.00
2023-02-03T23:03:18.303Z,508.00
2023-02-03T23:04:18.282Z,507.00
2023-02-03T23:05:18.286Z,503.00
2023-02-03T23:06:18.318Z,504.00
2023-02-03T23:07:18.372Z,509.00
2023-02-03T23:08:18.473Z,509.00
2023-02-03T23:09:18.523Z,506.00
2023-02-03T23:10:18.583Z,508.00
2023-02-03T23:11:18.665Z,502.00
2023-02-03T23:12:18.734Z,507.00
2023-02-03T23:13:18.828Z,511.00
2023-02-03T23:14:18.911Z,503.00
2023-02-03T23:15:19.594Z,507.00
2023-02-03T23:16:19.170Z,500.00
2023-02-03T23:17:19.161Z,509.00
2023-02-03T23:18:19.231Z,508.00
2023-02-03T23:19:19.475Z,504.00
2023-02-03T23:20:19.444Z,513.00
2023-02-03T23:21:19.423Z,507.00
2023-02-03T23:22:19.482Z,505.00
2023-02-03T23:23:19.545Z,505.00
2023-02-03T23:24:19.613Z,510.00
2023-02-03T23:25:19.678Z,505.00
2023-02-03T23:26:19.766Z,505.00
2023-02-03T23:27:19.833Z,502.00
2023-02-03T23:28:19.927Z,511.00
2023-02-03T23:29:19.989Z,508.00
2023-02-03T23:30:20.071Z,506.00
2023-02-03T23:31:20.219Z,505.00
2023-02-03T23:32:20.154Z,502.00
2023-02-03T23:33:20.222Z,505.00
2023-02-03T23:34:20.311Z,503.00
2023-02-03T23:35:20.415Z,503.00
2023-02-03T23:36:20.488Z,506.00
2023-02-03T23:37:20.582Z,504.00
2023-02-03T23:38:20.685Z,509.00
2023-02-03T23:39:20.745Z,513.00
2023-02-03T23:40:20.822Z,511.00
2023-02-03T23:41:20.883Z,503.00
2023-02-03T23:42:20.961Z,508.00
2023-02-03T23:43:21.019Z,502.00
2023-02-03T23:44:21.090Z,504.00
2023-02-03T23:45:21.174Z,504.00
2023-02-03T23:46:21.260Z,505.00
2023-02-03T23:47:21.300Z,508.00
2023-02-03T23:48:21.380Z,512.00
2023-02-03T23:49:21.402Z,507.00
